createdAt,value
2022-07-29T00:05:02.871Z,26.69
2022-07-29T00:10:07.604Z,26.68
2022-07-29T00:15:12.172Z,26.68
2022-07-29T00:20:16.241Z,26.68
2022-07-29T00:25:20.752Z,26.67
2022-07-29T00:30:25.432Z,26.67
2022-07-29T00:35:48.743Z,26.67
2022-07-29T00:40:53.200Z,26.67
2022-07-29T00:45:57.292Z,26.66
2022-07-29T00:51:02.661Z,26.64
2022-07-29T00:56:09.543Z,26.65
2022-07-29T01:01:13.801Z,26.63
2022-07-29T01:06:18.300Z,26.63
2022-07-29T01:11:22.951Z,26.63
2022-07-29T01:16:29.196Z,26.63
2022-07-29T01:21:52.201Z,26.63
2022-07-29T01:26:59.898Z,26.62
2022-07-29T01:32:05.840Z,26.61
2022-07-29T01:37:17.232Z,26.61
2022-07-29T01:42:29.200Z,26.60
2022-07-29T01:47:36.713Z,26.61
2022-07-29T01:52:44.201Z,26.60
2022-07-29T01:57:48.891Z,26.59
2022-07-29T02:02:54.751Z,26.60
2022-07-29T02:07:59.710Z,26.58
2022-07-29T02:13:04.701Z,26.58
2022-07-29T02:18:09.305Z,26.57
2022-07-29T02:23:14.131Z,26.56
2022-07-29T02:28:18.869Z,26.56
2022-07-29T02:33:23.401Z,26.55
2022-07-29T02:38:47.193Z,26.55
2022-07-29T02:43:54.171Z,26.55
2022-07-29T02:48:59.787Z,26.55
2022-07-29T02:54:08.600Z,26.57
2022-07-29T02:59:13.400Z,26.54
2022-07-29T03:04:18.586Z,26.53
2022-07-29T03:09:23.347Z,26.52
2022-07-29T03:14:28.068Z,26.51
2022-07-29T03:19:32.830Z,26.51
2022-07-29T03:24:37.538Z,26.50
2022-07-29T03:29:41.930Z,26.50
2022-07-29T03:34:54.491Z,26.49
2022-07-29T03:39:59.632Z,26.48
2022-07-29T03:45:06.740Z,26.48
2022-07-29T03:50:12.461Z,26.48
2022-07-29T03:55:17.489Z,26.47
2022-07-29T04:00:21.960Z,26.45
2022-07-29T04:05:26.073Z,26.46
2022-07-29T04:10:31.994Z,26.45
2022-07-29T04:15:38.530Z,26.45
2022-07-29T04:20:42.870Z,26.45
2022-07-29T04:25:47.114Z,26.44
2022-07-29T04:30:51.384Z,26.45
2022-07-29T04:35:55.270Z,26.45
2022-07-29T04:40:59.972Z,26.47
2022-07-29T04:46:04.690Z,26.46
2022-07-29T04:51:08.984Z,26.45
2022-07-29T04:56:13.429Z,26.45
2022-07-29T05:01:17.878Z,26.44
2022-07-29T05:06:22.125Z,26.44
2022-07-29T05:11:30.277Z,26.45
2022-07-29T05:16:34.743Z,26.49
2022-07-29T05:21:39.097Z,26.52
2022-07-29T05:26:43.423Z,26.55
2022-07-29T05:31:47.862Z,26.56
2022-07-29T05:36:52.593Z,26.57
2022-07-29T05:41:56.822Z,26.59
2022-07-29T05:47:00.972Z,26.57
2022-07-29T05:52:05.533Z,26.55
2022-07-29T05:57:09.793Z,26.55
2022-07-29T06:02:13.866Z,26.58
2022-07-29T06:07:18.311Z,26.60
2022-07-29T06:12:22.571Z,26.62
2022-07-29T06:17:26.773Z,26.64
2022-07-29T06:22:31.274Z,26.65
2022-07-29T06:27:35.462Z,26.66
2022-07-29T06:32:43.012Z,26.70
2022-07-29T06:37:47.591Z,26.79
2022-07-29T06:42:53.051Z,26.78
2022-07-29T06:47:58.102Z,26.79
2022-07-29T06:53:02.334Z,26.78
2022-07-29T06:58:07.742Z,26.80
2022-07-29T07:03:11.932Z,26.83
2022-07-29T07:08:17.232Z,26.84
2022-07-29T07:13:21.354Z,26.85
2022-07-29T07:18:25.553Z,26.86
2022-07-29T07:23:29.268Z,26.82
2022-07-29T07:28:33.592Z,26.81
2022-07-29T07:33:37.932Z,26.81
2022-07-29T07:38:42.280Z,26.81
2022-07-29T07:43:46.613Z,26.85
2022-07-29T07:48:51.166Z,26.82
2022-07-29T07:53:55.584Z,26.88
2022-07-29T07:59:01.704Z,26.91
2022-07-29T08:04:06.795Z,26.93
2022-07-29T08:09:28.191Z,26.93
2022-07-29T08:14:33.331Z,26.91
2022-07-29T08:19:38.262Z,26.88
2022-07-29T08:24:44.970Z,26.89
2022-07-29T08:29:49.658Z,26.92
2022-07-29T08:34:53.969Z,26.94
2022-07-29T08:39:58.212Z,26.97
2022-07-29T08:45:02.670Z,26.98
2022-07-29T08:50:08.018Z,26.99
2022-07-29T08:55:12.325Z,27.00
2022-07-29T09:00:18.002Z,27.02
2022-07-29T09:05:22.491Z,27.03
2022-07-29T09:10:26.882Z,27.03
2022-07-29T09:15:31.202Z,27.04
2022-07-29T09:20:49.622Z,27.04
2022-07-29T09:25:54.033Z,27.04
2022-07-29T09:30:59.774Z,27.04
2022-07-29T09:36:05.851Z,27.03
2022-07-29T09:41:11.320Z,27.02
2022-07-29T09:46:16.079Z,27.01
2022-07-29T09:51:23.039Z,27.02
2022-07-29T09:56:45.364Z,27.03
2022-07-29T10:01:50.102Z,27.04
2022-07-29T10:07:04.652Z,27.01
2022-07-29T10:12:10.306Z,26.99
2022-07-29T10:17:14.492Z,26.98
2022-07-29T10:22:43.361Z,26.97
2022-07-29T10:27:43.350Z,26.99
2022-07-29T10:32:55.991Z,26.99
2022-07-29T10:38:12.445Z,26.97
2022-07-29T10:43:23.253Z,26.98
2022-07-29T10:48:29.565Z,26.96
2022-07-29T10:53:49.886Z,26.97
2022-07-29T10:59:32.398Z,26.95
2022-07-29T11:04:58.320Z,26.97
2022-07-29T11:10:20.203Z,26.96
2022-07-29T11:15:25.209Z,26.95
2022-07-29T11:20:40.324Z,26.94
2022-07-29T11:31:10.833Z,26.95
2022-07-29T11:36:16.578Z,26.95
2022-07-29T11:41:25.921Z,26.93
2022-07-29T11:46:49.877Z,26.93
2022-07-29T11:51:54.834Z,26.93
2022-07-29T11:57:00.295Z,26.93
2022-07-29T12:02:36.525Z,26.93
2022-07-29T12:07:34.985Z,26.94
2022-07-29T12:12:40.035Z,26.93
2022-07-29T12:17:44.064Z,26.93
2022-07-29T12:22:50.032Z,26.92
2022-07-29T12:28:01.007Z,26.92
2022-07-29T12:33:11.915Z,26.92
2022-07-29T12:38:17.243Z,26.93
2022-07-29T12:43:22.099Z,26.91
2022-07-29T12:48:36.324Z,26.92
2022-07-29T12:53:40.764Z,26.92
2022-07-29T12:58:47.034Z,26.92
2022-07-29T13:03:57.332Z,26.92
2022-07-29T13:09:02.354Z,26.92
2022-07-29T13:14:07.340Z,26.92
2022-07-29T13:19:12.543Z,26.91
2022-07-29T13:24:19.799Z,26.91
2022-07-29T13:29:26.551Z,26.90
2022-07-29T13:34:32.604Z,26.91
2022-07-29T13:39:37.959Z,26.90
2022-07-29T13:44:42.503Z,26.90
2022-07-29T13:49:46.744Z,26.91
2022-07-29T13:54:51.481Z,26.90
2022-07-29T13:59:55.653Z,26.90
2022-07-29T14:05:02.768Z,26.90
2022-07-29T14:10:09.985Z,26.89
2022-07-29T14:15:14.205Z,26.90
2022-07-29T14:20:18.654Z,26.89
2022-07-29T14:25:23.618Z,26.90
2022-07-29T14:30:29.506Z,26.90
2022-07-29T14:35:34.051Z,26.90
2022-07-29T14:40:38.684Z,26.90
2022-07-29T14:45:43.238Z,26.89
2022-07-29T14:50:48.283Z,26.90
2022-07-29T14:55:52.685Z,26.90
2022-07-29T15:00:57.201Z,26.90
2022-07-29T15:06:01.283Z,26.90
2022-07-29T15:11:05.122Z,26.90
2022-07-29T15:16:10.124Z,26.89
2022-07-29T15:21:16.214Z,26.90
2022-07-29T15:26:20.674Z,26.90
2022-07-29T15:31:25.396Z,26.90
2022-07-29T15:36:50.672Z,26.90
2022-07-29T15:41:54.145Z,26.91
2022-07-29T15:47:03.770Z,26.91
2022-07-29T15:52:08.812Z,26.90
2022-07-29T15:57:13.013Z,26.90
2022-07-29T16:02:17.559Z,26.89
2022-07-29T16:07:22.075Z,26.89
2022-07-29T16:12:27.234Z,26.89
2022-07-29T16:17:31.544Z,26.88
2022-07-29T16:22:35.792Z,26.88
2022-07-29T16:27:40.026Z,26.87
2022-07-29T16:32:44.163Z,26.88
2022-07-29T16:37:48.596Z,26.88
2022-07-29T16:42:53.033Z,26.88
2022-07-29T16:48:00.339Z,26.87
2022-07-29T16:53:05.812Z,26.86
2022-07-29T16:58:10.446Z,26.86
2022-07-29T17:03:14.574Z,26.87
2022-07-29T17:08:19.021Z,26.86
2022-07-29T17:13:23.133Z,26.85
2022-07-29T17:18:27.165Z,26.84
2022-07-29T17:23:31.085Z,26.89
2022-07-29T17:28:35.314Z,26.85
2022-07-29T17:33:39.794Z,26.84
2022-07-29T17:38:44.303Z,26.84
2022-07-29T17:43:48.675Z,26.84
2022-07-29T17:48:52.882Z,26.83
2022-07-29T17:53:57.884Z,26.84
2022-07-29T17:59:06.489Z,26.83
2022-07-29T18:04:11.113Z,26.83
2022-07-29T18:09:15.647Z,26.82
2022-07-29T18:14:20.063Z,26.82
2022-07-29T18:19:24.155Z,26.82
2022-07-29T18:24:29.005Z,26.81
2022-07-29T18:29:33.873Z,26.81
2022-07-29T18:34:38.223Z,26.80
2022-07-29T18:39:42.266Z,26.81
2022-07-29T18:44:49.178Z,26.80
2022-07-29T18:49:53.583Z,26.80
2022-07-29T18:54:57.914Z,26.81
2022-07-29T19:00:02.571Z,26.80
2022-07-29T19:05:08.203Z,26.79
2022-07-29T19:10:13.272Z,26.79
2022-07-29T19:15:20.356Z,26.78
2022-07-29T19:20:24.687Z,26.78
2022-07-29T19:25:28.744Z,26.78
2022-07-29T19:30:34.227Z,26.77
2022-07-29T19:35:38.539Z,26.76
2022-07-29T19:40:42.766Z,26.77
2022-07-29T19:45:47.262Z,26.77
2022-07-29T19:50:51.783Z,26.77
2022-07-29T19:55:55.684Z,26.77
2022-07-29T20:00:59.732Z,26.76
2022-07-29T20:06:03.940Z,26.76
2022-07-29T20:11:07.859Z,26.76
2022-07-29T20:16:12.391Z,26.76
2022-07-29T20:21:16.726Z,26.75
2022-07-29T20:26:21.075Z,26.76
2022-07-29T20:31:25.507Z,26.75
2022-07-29T20:36:29.643Z,26.74
2022-07-29T20:41:34.182Z,26.74
2022-07-29T20:46:39.563Z,26.76
2022-07-29T20:51:44.250Z,26.74
2022-07-29T20:56:48.665Z,26.73
2022-07-29T21:01:54.876Z,26.73
2022-07-29T21:06:59.137Z,26.73
2022-07-29T21:12:04.191Z,26.73
2022-07-29T21:17:08.343Z,26.72
2022-07-29T21:22:12.845Z,26.72
2022-07-29T21:27:34.696Z,26.72
2022-07-29T21:32:38.969Z,26.71
2022-07-29T21:37:43.255Z,26.71
2022-07-29T21:42:47.285Z,26.71
2022-07-29T21:47:51.424Z,26.71
2022-07-29T21:52:55.783Z,26.71
2022-07-29T21:57:59.991Z,26.71
2022-07-29T22:03:05.584Z,26.71
2022-07-29T22:08:09.791Z,26.70
2022-07-29T22:13:14.123Z,26.70
2022-07-29T22:18:20.960Z,26.69
2022-07-29T22:23:25.688Z,26.69
2022-07-29T22:28:30.286Z,26.69
2022-07-29T22:33:34.544Z,26.68
2022-07-29T22:38:38.653Z,26.68
2022-07-29T22:43:43.243Z,26.68
2022-07-29T22:48:47.467Z,26.67
2022-07-29T22:53:51.763Z,26.67
2022-07-29T22:58:55.891Z,26.67
2022-07-29T23:04:00.096Z,26.67
2022-07-29T23:09:04.542Z,26.66
2022-07-29T23:14:09.478Z,26.66
2022-07-29T23:19:14.253Z,26.65
2022-07-29T23:24:18.275Z,26.65
2022-07-29T23:29:22.612Z,26.63
2022-07-29T23:34:27.153Z,26.64
2022-07-29T23:39:31.283Z,26.63
2022-07-29T23:44:35.524Z,26.63
2022-07-29T23:49:39.953Z,26.63
2022-07-29T23:54:43.866Z,26.63
2022-07-29T23:59:48.213Z,26.62
